CheckWX is a tool to help pilots better visualize weather data.  It is not intended as a substitute for an official pre-flight weather briefing.

15:32:09 UTC

LLBG METAR
Ben Gurion International Airport
Tel Aviv, Israel
Current

12 mins ago

LLBG 211520Z 24008KT CAVOK 17/10 Q1013 TEMPO 25015KT RMK BKN065
Observed
Feb-21 @ 15:20 UTC
Wind
  • 240° at 8 KTS
Visibility
10,000+ meters
Flight Rules
VFR
Cloud Levels
  • Clear skies
Temperature
17°C / 63°F
Dewpoint
10°C / 50°F
Humidity
64%
Altimeter
29.91" Hg
Pressure
1012.92 hPa
Previous

42 mins ago

LLBG 211450Z 25010KT CAVOK 17/10 Q1013 NOSIG RMK BKN060
Observed
Feb-21 @ 14:50 UTC
Wind
  • 250° at 10 KTS
Visibility
10,000+ meters
Flight Rules
VFR
Cloud Levels
  • Clear skies
Temperature
17°C / 63°F
Dewpoint
10°C / 50°F
Humidity
64%
Altimeter
29.91" Hg
Pressure
1012.92 hPa
Previous

1 hour ago

LLBG 211420Z 25011KT CAVOK 18/10 Q1013 NOSIG RMK BKN060
Observed
Feb-21 @ 14:20 UTC
Wind
  • 250° at 11 KTS
Visibility
10,000+ meters
Flight Rules
VFR
Cloud Levels
  • Clear skies
Temperature
18°C / 64°F
Dewpoint
10°C / 50°F
Humidity
60%
Altimeter
29.91" Hg
Pressure
1012.92 hPa